createdAt,value
2018-11-25T00:19:30.686Z,97712.23
2018-11-25T00:40:13.713Z,97713.53
2018-11-25T01:00:51.138Z,97689.89
2018-11-25T01:21:27.620Z,97687.59
2018-11-25T01:42:03.525Z,97678.38
2018-11-25T02:02:40.536Z,97669.15
2018-11-25T02:23:17.141Z,97646.95
2018-11-25T02:43:55.382Z,97642.25
2018-11-25T03:04:31.576Z,97616.61
2018-11-25T03:25:10.637Z,97632.84
2018-11-25T03:45:50.107Z,97636.05
2018-11-25T04:06:25.078Z,97619.83
2018-11-25T04:27:04.561Z,97610.10
2018-11-25T04:47:43.599Z,97588.02
2018-11-25T05:08:20.216Z,97583.65
2018-11-25T05:28:56.403Z,97575.71
2018-11-25T05:49:36.629Z,97569.37
2018-11-25T06:10:10.837Z,97567.45
2018-11-25T06:30:47.849Z,97564.03
2018-11-25T06:51:26.093Z,97554.96
2018-11-25T07:12:05.564Z,97568.08
2018-11-25T07:32:46.676Z,97549.90
2018-11-25T07:53:24.918Z,97547.46
2018-11-25T08:14:03.158Z,97545.51
2018-11-25T08:34:49.599Z,97524.70
2018-11-25T08:55:27.015Z,97518.16
2018-11-25T09:16:02.387Z,97509.05
2018-11-25T09:36:42.271Z,97508.97
2018-11-25T09:57:18.936Z,97484.23
2018-11-25T10:17:59.730Z,97479.90
2018-11-25T10:38:31.263Z,97453.97
2018-11-25T10:59:09.505Z,97438.73
2018-11-25T11:19:46.519Z,97413.81
2018-11-25T11:40:28.406Z,97406.30
2018-11-25T12:01:05.056Z,97398.58
2018-11-25T12:21:43.708Z,97392.36
2018-11-25T12:42:19.907Z,97379.63
2018-11-25T13:02:58.143Z,97366.81
2018-11-25T13:23:42.962Z,97356.63
2018-11-25T13:44:14.829Z,97334.44
2018-11-25T14:04:49.595Z,97336.60
2018-11-25T14:25:27.234Z,97317.23
2018-11-25T14:46:07.514Z,97316.72
2018-11-25T15:06:45.771Z,97326.14
2018-11-25T15:27:22.974Z,97325.82
2018-11-25T15:48:20.479Z,97319.58
2018-11-25T16:08:56.713Z,97300.50
2018-11-25T16:29:34.905Z,97300.93
2018-11-25T16:50:24.474Z,97309.72
2018-11-25T17:10:57.534Z,97289.17
2018-11-25T17:31:34.545Z,97289.98
2018-11-25T17:52:10.740Z,97288.19
2018-11-25T18:12:51.031Z,97282.72
2018-11-25T18:33:31.322Z,97300.12
2018-11-25T18:54:10.867Z,97298.10
2018-11-25T19:14:46.984Z,97293.94
2018-11-25T19:35:25.229Z,97290.95
2018-11-25T19:56:00.193Z,97293.33
2018-11-25T20:16:44.579Z,97305.30
2018-11-25T20:37:26.876Z,97299.38
2018-11-25T20:58:03.119Z,97293.05
2018-11-25T21:18:38.698Z,97304.56
2018-11-25T21:39:15.921Z,97298.01
2018-11-25T21:59:52.921Z,97304.19
2018-11-25T22:20:30.350Z,97301.76
2018-11-25T22:41:04.494Z,97304.92
2018-11-25T23:01:44.785Z,97306.08
2018-11-25T23:22:21.177Z,97306.91
2018-11-25T23:43:00.452Z,97313.57
